Nissan Maru — JG5485 — position and weather

sailwx.info

Track history (hours):
 
Tides and Currents Weather Stations Pressure Air Temp Water Temp Dewpoint Dewpoint Depression Visibility Wind Speed Wind Dir Waves Ship Positions

Nissan Maru

Last reported at 2014-Dec-22 04:33 UTC. Time now 2014-Dec-22 04:58 UTC.
Position N 35°29' E 139°44'.

Length 108 m; draft 7.2 m.

Type: Cargo ship. MMSI: 431400593.

Date/timePositionNaut miles runAvg speedWind from/ knotsBaromVisibWave heightAir tempDewpointWater temp
2014-Dec-22 04:33N 35°29' E 139°44'0 0.0
2014-Dec-22 03:33N 35°29' E 139°44'0 0.0
2014-Dec-22 02:33N 35°29' E 139°44'0 0.0
2014-Dec-22 01:33N 35°29' E 139°44'5 5.3
2014-Dec-22 00:33N 35°24' E 139°46'1010.5
2014-Dec-21 23:33N 35°14' E 139°47'  
2014-Dec-19 06:30N 35°07' E 139°41'1111.6
2014-Dec-19 05:33N 35°17' E 139°45'1211.5
2014-Dec-19 04:33N 35°29' E 139°45'1 0.7
2014-Dec-19 03:31N 35°29' E 139°44'0 0.0
2014-Dec-19 02:25N 35°29' E 139°44'0 0.0
2014-Dec-19 01:31N 35°29' E 139°44'0 0.0
2014-Dec-19 00:31N 35°29' E 139°44'0 0.0
2014-Dec-18 23:31N 35°29' E 139°44'0 0.0
2014-Dec-18 22:31N 35°29' E 139°44'0 0.0
2014-Dec-18 21:31N 35°29' E 139°44'0 0.0
2014-Dec-18 20:31N 35°29' E 139°44'0 0.0
2014-Dec-18 19:31N 35°29' E 139°44'0 0.0
2014-Dec-18 18:31N 35°29' E 139°44'0 0.0
2014-Dec-18 17:31N 35°29' E 139°44'0 0.0
2014-Dec-18 16:31N 35°29' E 139°44'3 3.1
2014-Dec-18 15:33N 35°27' E 139°46'1010.0
2014-Dec-18 14:33N 35°17' E 139°46'  
2014-Dec-14 03:06N 35°06' E 139°40'712.4
2014-Dec-14 02:33N 35°11' E 139°46'1212.3
2014-Dec-14 01:33N 35°23' E 139°42'6 6.4
2014-Dec-14 00:33N 35°29' E 139°44'0 0.0
2014-Dec-13 23:33N 35°29' E 139°44'0 0.0
2014-Dec-13 22:30N 35°29' E 139°44'0 0.0
2014-Dec-13 18:15N 35°29' E 139°44'0 0.0
2014-Dec-13 17:33N 35°29' E 139°44'0 0.0
2014-Dec-13 16:33N 35°29' E 139°44'0 0.0
2014-Dec-13 15:33N 35°29' E 139°44'0 0.0
2014-Dec-13 14:33N 35°29' E 139°44'4 4.2
2014-Dec-13 13:33N 35°26' E 139°47'1110.6
2014-Dec-13 12:33N 35°15' E 139°47'  
Track history (hours):
 
Tides and Currents Weather Stations Pressure Air Temp Water Temp Dewpoint Dewpoint Depression Visibility Wind Speed Wind Dir Waves Ship Positions

Nissan Maru

Last reported at 2014-Dec-22 04:33 UTC. Time now 2014-Dec-22 04:58 UTC.
Position N 35°29' E 139°44'.

Length 108 m; draft 7.2 m.

Type: Cargo ship. MMSI: 431400593.

Date/timePositionNaut miles runAvg speedWind from/ knotsBaromVisibWave heightAir tempDewpointWater temp
2014-Dec-22 04:33N 35°29' E 139°44'0 0.0
2014-Dec-22 03:33N 35°29' E 139°44'0 0.0
2014-Dec-22 02:33N 35°29' E 139°44'0 0.0
2014-Dec-22 01:33N 35°29' E 139°44'5 5.3
2014-Dec-22 00:33N 35°24' E 139°46'1010.5
2014-Dec-21 23:33N 35°14' E 139°47'  
2014-Dec-19 06:30N 35°07' E 139°41'1111.6
2014-Dec-19 05:33N 35°17' E 139°45'1211.5
2014-Dec-19 04:33N 35°29' E 139°45'1 0.7
2014-Dec-19 03:31N 35°29' E 139°44'0 0.0
2014-Dec-19 02:25N 35°29' E 139°44'0 0.0
2014-Dec-19 01:31N 35°29' E 139°44'0 0.0
2014-Dec-19 00:31N 35°29' E 139°44'0 0.0
2014-Dec-18 23:31N 35°29' E 139°44'0 0.0
2014-Dec-18 22:31N 35°29' E 139°44'0 0.0
2014-Dec-18 21:31N 35°29' E 139°44'0 0.0
2014-Dec-18 20:31N 35°29' E 139°44'0 0.0
2014-Dec-18 19:31N 35°29' E 139°44'0 0.0
2014-Dec-18 18:31N 35°29' E 139°44'0 0.0
2014-Dec-18 17:31N 35°29' E 139°44'0 0.0
2014-Dec-18 16:31N 35°29' E 139°44'3 3.1
2014-Dec-18 15:33N 35°27' E 139°46'1010.0
2014-Dec-18 14:33N 35°17' E 139°46'  
2014-Dec-14 03:06N 35°06' E 139°40'712.4
2014-Dec-14 02:33N 35°11' E 139°46'1212.3
2014-Dec-14 01:33N 35°23' E 139°42'6 6.4
2014-Dec-14 00:33N 35°29' E 139°44'0 0.0
2014-Dec-13 23:33N 35°29' E 139°44'0 0.0
2014-Dec-13 22:30N 35°29' E 139°44'0 0.0
2014-Dec-13 18:15N 35°29' E 139°44'0 0.0
2014-Dec-13 17:33N 35°29' E 139°44'0 0.0
2014-Dec-13 16:33N 35°29' E 139°44'0 0.0
2014-Dec-13 15:33N 35°29' E 139°44'0 0.0
2014-Dec-13 14:33N 35°29' E 139°44'4 4.2
2014-Dec-13 13:33N 35°26' E 139°47'1110.6
2014-Dec-13 12:33N 35°15' E 139°47'  

Dump ship's entire track history